Time;durP1;ratioP1;P1;durP2;ratioP2;P2;SDS_P1;SDS_P2;PMS_P1;PMS_P2;Temp;Humidity;BMP_temperature;BMP_pressure;BME280_temperature;BME280_humidity;BME280_pressure;Samples;Min_cycle;Max_cycle;Signal;HPM_P1;HPM_P2
2022/07/12 04:01:43;;;;;;;2.83;2.60;;;17.30;99.90;;;;;;5393473;23;20510;-62
2022/07/12 04:04:09;;;;;;;2.53;2.43;;;17.30;99.90;;;;;;4976776;28;20482;-63
2022/07/12 04:06:36;;;;;;;2.90;2.43;;;17.30;99.90;;;;;;4976861;28;20455;-63
2022/07/12 04:09:03;;;;;;;2.97;2.47;;;17.40;99.90;;;;;;4976879;28;20487;-63
2022/07/12 04:11:30;;;;;;;2.90;2.70;;;17.40;99.90;;;;;;4976751;28;20475;-63
2022/07/12 04:13:57;;;;;;;2.93;2.73;;;17.50;99.90;;;;;;4977067;28;20455;-63
2022/07/12 04:16:23;;;;;;;3.00;2.80;;;17.60;99.90;;;;;;4976683;28;20466;-63
2022/07/12 04:18:52;;;;;;;4.67;2.70;;;17.60;99.90;;;;;;4977044;28;20466;-63
2022/07/12 04:21:19;;;;;;;3.03;2.93;;;17.70;99.90;;;;;;4976910;28;20482;-63
2022/07/12 04:23:45;;;;;;;2.77;2.67;;;17.70;99.90;;;;;;4976783;28;20478;-64
2022/07/12 04:26:12;;;;;;;3.30;2.63;;;17.80;99.90;;;;;;4976605;28;20458;-64
2022/07/12 04:28:39;;;;;;;2.70;2.60;;;17.80;99.90;;;;;;4976509;28;20455;-63
2022/07/12 04:31:06;;;;;;;4.00;3.80;;;17.90;99.90;;;;;;4976619;28;20485;-63
2022/07/12 04:33:33;;;;;;;2.70;2.50;;;18.00;99.90;;;;;;4976429;28;20937;-64
2022/07/12 04:36:01;;;;;;;3.27;3.07;;;18.00;99.90;;;;;;4976480;28;20450;-63
2022/07/12 04:38:28;;;;;;;4.10;2.70;;;18.10;99.90;;;;;;4976300;28;20462;-63
2022/07/12 04:40:55;;;;;;;4.00;3.07;;;18.10;99.90;;;;;;4975898;28;21096;-63
2022/07/12 04:43:24;;;;;;;2.90;2.70;;;18.20;99.90;;;;;;4976279;28;20846;-63
2022/07/12 04:45:50;;;;;;;3.37;3.07;;;18.30;99.90;;;;;;4975826;28;20957;-64
2022/07/12 04:48:17;;;;;;;3.93;3.63;;;18.30;99.90;;;;;;4976370;28;20458;-64
2022/07/12 04:50:44;;;;;;;3.47;3.17;;;18.30;99.90;;;;;;4977074;28;20482;-64
2022/07/12 04:53:12;;;;;;;3.17;3.00;;;18.30;99.90;;;;;;4975722;28;20454;-65
2022/07/12 04:55:39;;;;;;;3.17;2.93;;;18.30;99.90;;;;;;4976799;28;20455;-65
2022/07/12 04:58:05;;;;;;;3.37;3.07;;;18.30;99.90;;;;;;4975904;28;20455;-64
2022/07/12 05:00:32;;;;;;;4.53;3.27;;;18.20;99.90;;;;;;4975525;28;20490;-64
2022/07/12 05:02:59;;;;;;;3.07;2.87;;;18.30;99.90;;;;;;4975854;28;20446;-64
2022/07/12 05:05:26;;;;;;;3.07;2.73;;;18.30;99.90;;;;;;4975730;28;20477;-64
2022/07/12 05:07:52;;;;;;;3.47;3.27;;;18.30;99.90;;;;;;4975497;28;20450;-65
2022/07/12 05:10:21;;;;;;;3.37;3.07;;;18.30;99.90;;;;;;4975371;28;20938;-63
2022/07/12 05:12:48;;;;;;;4.03;3.53;;;18.40;99.90;;;;;;4976582;28;20454;-65
2022/07/12 05:15:15;;;;;;;3.50;3.30;;;18.40;99.90;;;;;;4975356;28;21012;-64
2022/07/12 05:17:41;;;;;;;3.90;3.37;;;18.40;99.90;;;;;;4975971;28;20458;-64
2022/07/12 05:20:09;;;;;;;3.70;3.50;;;18.50;99.90;;;;;;4975362;28;20466;-63
2022/07/12 05:22:36;;;;;;;3.60;3.40;;;18.50;99.90;;;;;;4975597;28;20855;-63
2022/07/12 05:25:04;;;;;;;3.57;3.37;;;18.60;99.90;;;;;;4975550;28;20569;-63
2022/07/12 05:27:32;;;;;;;4.57;4.20;;;18.60;99.90;;;;;;4975402;28;20454;-63
2022/07/12 05:29:59;;;;;;;3.13;3.03;;;18.60;99.90;;;;;;4975251;28;20461;-63
2022/07/12 05:32:26;;;;;;;3.93;3.73;;;18.60;99.90;;;;;;4975266;28;20481;-63
2022/07/12 05:34:53;;;;;;;4.33;3.60;;;18.70;99.90;;;;;;4975259;28;20458;-63
2022/07/12 05:37:20;;;;;;;4.23;3.93;;;18.70;99.90;;;;;;4975261;28;20454;-63
2022/07/12 05:39:47;;;;;;;4.27;3.87;;;18.80;99.90;;;;;;4975318;28;20462;-63
2022/07/12 05:42:13;;;;;;;4.80;4.40;;;18.90;99.90;;;;;;4975303;28;20481;-65
2022/07/12 05:44:41;;;;;;;4.40;4.10;;;19.00;99.90;;;;;;4977928;28;20478;-67
2022/07/12 05:47:08;;;;;;;4.87;4.57;;;19.00;99.90;;;;;;4987781;28;20454;-66
2022/07/12 05:49:35;;;;;;;4.83;4.53;;;19.10;99.90;;;;;;4978441;28;20451;-66
2022/07/12 05:54:48;;;;;;;5.07;4.10;;;19.20;99.90;;;;;;4968523;28;20498;-66
2022/07/12 05:57:15;;;;;;;4.47;4.07;;;19.30;99.90;;;;;;4975711;28;20851;-66
2022/07/12 05:59:43;;;;;;;3.80;3.60;;;19.40;99.90;;;;;;4976012;28;20954;-66
2022/07/12 06:02:10;;;;;;;5.10;3.90;;;19.40;99.90;;;;;;4975678;28;20514;-66
2022/07/12 06:04:37;;;;;;;3.33;3.13;;;19.40;99.90;;;;;;4975259;28;20482;-66
2022/07/12 06:07:05;;;;;;;3.87;3.50;;;19.50;99.90;;;;;;4974970;28;20465;-66
2022/07/12 06:09:32;;;;;;;4.70;3.77;;;19.70;99.90;;;;;;4975346;28;20578;-66
2022/07/12 06:11:58;;;;;;;6.90;3.67;;;19.80;99.90;;;;;;4974947;28;20478;-66
2022/07/12 06:14:25;;;;;;;3.40;3.10;;;20.00;99.90;;;;;;4975291;28;20454;-66
2022/07/12 06:16:53;;;;;;;7.10;2.90;;;20.20;99.90;;;;;;4975696;28;20509;-67
2022/07/12 06:19:20;;;;;;;2.37;2.17;;;20.40;99.90;;;;;;4978725;28;20457;-66
2022/07/12 06:21:46;;;;;;;2.17;2.03;;;20.50;99.90;;;;;;4978618;28;20481;-66
2022/07/12 06:24:13;;;;;;;3.50;2.40;;;20.50;99.90;;;;;;4978781;28;20503;-66
2022/07/12 06:26:40;;;;;;;2.23;2.13;;;20.60;99.90;;;;;;4978698;28;20459;-66
2022/07/12 06:29:07;;;;;;;4.37;2.30;;;20.80;99.90;;;;;;4978538;28;20458;-66
2022/07/12 06:31:35;;;;;;;1.83;1.30;;;21.00;99.90;;;;;;4978174;28;20478;-66
2022/07/12 06:34:03;;;;;;;3.00;2.07;;;21.20;99.90;;;;;;4978781;28;20814;-67
2022/07/12 06:36:30;;;;;;;2.80;2.10;;;21.50;99.90;;;;;;4978732;28;20458;-66
2022/07/12 06:38:57;;;;;;;2.20;2.10;;;21.60;99.90;;;;;;4978920;28;20461;-66
2022/07/12 06:41:24;;;;;;;1.80;1.70;;;21.90;99.90;;;;;;4978163;28;20985;-67
2022/07/12 06:43:51;;;;;;;2.20;2.10;;;22.10;99.90;;;;;;4978529;28;20845;-66
2022/07/12 06:46:18;;;;;;;1.73;1.63;;;22.10;99.90;;;;;;4978354;28;20450;-67
2022/07/12 06:48:44;;;;;;;3.33;1.70;;;22.30;99.90;;;;;;4978185;28;20945;-67
2022/07/12 06:51:12;;;;;;;3.03;1.70;;;22.60;99.90;;;;;;4978145;28;20478;-66
2022/07/12 06:53:39;;;;;;;4.83;1.30;;;22.70;99.90;;;;;;4978105;28;20469;-67
2022/07/12 06:56:06;;;;;;;2.97;1.43;;;22.80;99.90;;;;;;4978001;28;20458;-67
2022/07/12 06:58:33;;;;;;;1.20;1.20;;;23.10;99.90;;;;;;4978050;28;20520;-67
2022/07/12 07:01:00;;;;;;;1.60;0.90;;;23.40;99.90;;;;;;4978191;28;20576;-66
2022/07/12 07:03:27;;;;;;;1.00;0.90;;;23.90;99.90;;;;;;4978716;28;20458;-67
2022/07/12 07:05:53;;;;;;;0.83;0.83;;;24.50;99.90;;;;;;4979329;28;20462;-67
2022/07/12 07:08:21;;;;;;;0.90;0.90;;;24.90;99.90;;;;;;4978385;28;20481;-67
2022/07/12 07:10:48;;;;;;;1.17;1.17;;;25.20;99.90;;;;;;4978388;28;20486;-67
2022/07/12 07:13:15;;;;;;;1.63;0.90;;;25.50;99.90;;;;;;4978490;28;20454;-67
2022/07/12 07:15:42;;;;;;;1.50;1.40;;;25.90;99.90;;;;;;4977927;28;20450;-67
2022/07/12 07:18:09;;;;;;;1.07;1.07;;;26.40;99.90;;;;;;4977772;28;20961;-67
2022/07/12 07:20:35;;;;;;;1.03;1.03;;;27.20;99.20;;;;;;4978037;28;20844;-67
2022/07/12 07:23:02;;;;;;;0.97;0.97;;;27.80;96.00;;;;;;4978059;28;20455;-67
2022/07/12 07:25:30;;;;;;;0.87;0.87;;;28.20;94.90;;;;;;4978118;28;20482;-68
2022/07/12 07:27:57;;;;;;;0.80;0.80;;;28.30;93.10;;;;;;4977870;28;20462;-67
2022/07/12 07:33:08;;;;;;;0.83;0.83;;;28.50;91.90;;;;;;4978279;28;20422;-68
2022/07/12 07:35:35;;;;;;;0.87;0.87;;;28.40;90.20;;;;;;4978070;28;20578;-67
2022/07/12 07:38:01;;;;;;;0.60;0.60;;;28.70;90.70;;;;;;4977715;28;20462;-67
2022/07/12 07:40:29;;;;;;;0.53;0.53;;;28.60;85.10;;;;;;4978034;28;20462;-67
2022/07/12 07:42:56;;;;;;;1.47;0.80;;;28.30;86.40;;;;;;4977800;28;20462;-67
2022/07/12 07:45:23;;;;;;;1.00;1.00;;;28.50;87.70;;;;;;4977179;28;20482;-67
2022/07/12 07:47:50;;;;;;;2.97;1.00;;;28.90;85.60;;;;;;4977592;28;20961;-67
2022/07/12 07:50:17;;;;;;;2.10;0.80;;;29.30;84.00;;;;;;4978461;28;20459;-67
2022/07/12 07:52:45;;;;;;;1.20;1.10;;;29.50;81.90;;;;;;4978825;28;20541;-67
2022/07/12 07:55:12;;;;;;;1.07;1.07;;;29.70;84.10;;;;;;4977667;28;20485;-67
2022/07/12 07:57:40;;;;;;;2.93;0.90;;;29.80;79.30;;;;;;4979944;28;20462;-67
2022/07/12 08:00:07;;;;;;;1.17;0.70;;;29.80;79.90;;;;;;4978037;28;20459;-66
2022/07/12 08:02:34;;;;;;;0.83;0.83;;;29.50;78.10;;;;;;4977011;28;20490;-67
2022/07/12 08:05:01;;;;;;;0.97;0.90;;;29.50;78.20;;;;;;4977466;28;20845;-66
2022/07/12 08:07:28;;;;;;;1.27;0.80;;;30.10;76.50;;;;;;4977843;28;20458;-66
2022/07/12 08:09:54;;;;;;;0.90;0.90;;;30.80;75.70;;;;;;4977396;28;20462;-67
2022/07/12 08:12:21;;;;;;;1.20;0.80;;;30.90;70.70;;;;;;4977441;28;20482;-68
2022/07/12 08:14:49;;;;;;;1.23;0.80;;;30.80;70.50;;;;;;4976842;28;20817;-67
2022/07/12 08:17:16;;;;;;;0.47;0.47;;;31.10;70.80;;;;;;4977682;28;20460;-66
2022/07/12 08:19:43;;;;;;;1.33;0.70;;;31.30;69.50;;;;;;4977356;28;20934;-67
2022/07/12 08:22:10;;;;;;;0.70;0.70;;;31.50;67.80;;;;;;4976545;28;20475;-66
2022/07/12 08:24:37;;;;;;;1.13;1.10;;;31.30;69.60;;;;;;4977768;28;20474;-68
2022/07/12 08:27:05;;;;;;;1.43;0.87;;;31.40;70.10;;;;;;4977383;28;20816;-67
2022/07/12 08:29:31;;;;;;;1.27;1.17;;;31.50;69.40;;;;;;4977513;28;20517;-67
2022/07/12 08:31:59;;;;;;;1.07;0.97;;;31.90;70.70;;;;;;4976933;28;20479;-67
2022/07/12 08:34:26;;;;;;;4.27;1.20;;;32.10;68.30;;;;;;4977348;28;20461;-67
2022/07/12 08:36:53;;;;;;;1.20;1.10;;;32.50;63.20;;;;;;4977413;28;20450;-67
2022/07/12 08:39:19;;;;;;;1.43;1.07;;;32.90;65.00;;;;;;4976787;28;20461;-68
2022/07/12 08:41:46;;;;;;;1.03;1.03;;;33.10;59.80;;;;;;4976336;28;20482;-67
2022/07/12 08:44:13;;;;;;;0.80;0.80;;;33.10;61.80;;;;;;4976778;28;20489;-67
2022/07/12 08:46:39;;;;;;;1.30;0.80;;;33.50;62.90;;;;;;4977072;28;20491;-67
2022/07/12 08:49:08;;;;;;;1.03;1.00;;;33.60;60.50;;;;;;4977099;28;20941;-68
2022/07/12 08:51:35;;;;;;;1.07;0.70;;;33.40;59.00;;;;;;4976680;28;20978;-67
2022/07/12 08:54:09;;;;;;;1.67;0.90;;;32.90;59.60;;;;;;4977571;28;20461;-67
2022/07/12 08:56:38;;;;;;;1.70;0.60;;;32.90;59.90;;;;;;4979261;28;20858;-67
2022/07/12 08:59:16;;;;;;;0.97;0.97;;;33.10;59.50;;;;;;4978332;28;20490;-67
2022/07/12 09:01:47;;;;;;;1.00;1.00;;;33.00;59.20;;;;;;4977649;28;20488;-66
2022/07/12 09:04:17;;;;;;;1.10;0.80;;;32.00;59.80;;;;;;4978333;28;20803;-67
2022/07/12 09:06:43;;;;;;;1.30;1.30;;;31.30;63.70;;;;;;4977282;28;20454;-67
2022/07/12 09:09:10;;;;;;;1.73;1.00;;;30.50;63.80;;;;;;4977029;28;20462;-66
2022/07/12 09:11:38;;;;;;;2.00;1.10;;;29.70;64.60;;;;;;4976424;28;20485;-66
2022/07/12 09:14:05;;;;;;;1.50;1.40;;;29.10;66.80;;;;;;4987923;28;20455;-67
2022/07/12 09:16:32;;;;;;;0.70;0.70;;;28.90;68.80;;;;;;4987300;28;20501;-67
2022/07/12 09:19:17;;;;;;;0.80;0.80;;;29.30;68.80;;;;;;4976818;28;20455;-66
2022/07/12 09:21:51;;;;;;;0.70;0.70;;;29.60;65.30;;;;;;4976038;28;20480;-66
2022/07/12 09:24:18;;;;;;;0.63;0.63;;;30.00;63.20;;;;;;4976674;28;21017;-67
2022/07/12 09:26:46;;;;;;;0.60;0.60;;;29.90;65.30;;;;;;4976412;28;20490;-67
2022/07/12 09:29:16;;;;;;;2.10;0.60;;;29.90;64.60;;;;;;4976514;28;20454;-67
2022/07/12 09:37:10;;;;;;;0.87;0.87;;;28.60;67.90;;;;;;4977070;28;20442;-67
2022/07/12 09:39:39;;;;;;;0.93;0.93;;;28.00;71.30;;;;;;4977686;28;20458;-68
2022/07/12 09:42:08;;;;;;;0.90;0.90;;;28.00;70.50;;;;;;4978787;28;20475;-67
2022/07/12 09:44:36;;;;;;;1.37;1.10;;;28.10;71.20;;;;;;4979798;28;20454;-68
2022/07/12 09:47:03;;;;;;;0.83;0.83;;;28.80;67.90;;;;;;4979142;28;20792;-68
2022/07/12 09:49:32;;;;;;;0.77;0.77;;;29.40;66.40;;;;;;4977500;28;20446;-67
2022/07/12 09:52:00;;;;;;;0.60;0.60;;;30.40;65.10;;;;;;4976372;28;20510;-69
2022/07/12 09:54:29;;;;;;;1.33;0.60;;;31.20;62.30;;;;;;4976189;28;20458;-67
2022/07/12 09:56:59;;;;;;;0.67;0.63;;;32.00;62.70;;;;;;4976518;28;20549;-67
2022/07/12 09:59:29;;;;;;;0.70;0.70;;;32.60;58.60;;;;;;4976447;28;20846;-67
2022/07/12 10:01:59;;;;;;;0.60;0.60;;;32.50;58.90;;;;;;4975563;28;20486;-67
2022/07/12 10:04:31;;;;;;;0.60;0.60;;;32.00;57.90;;;;;;4975787;28;20480;-68
2022/07/12 10:06:59;;;;;;;0.73;0.73;;;31.80;59.00;;;;;;4975522;28;20418;-68
2022/07/12 10:09:27;;;;;;;0.57;0.57;;;32.30;58.00;;;;;;4975453;28;20451;-67
2022/07/12 10:11:56;;;;;;;0.60;0.60;;;32.80;57.90;;;;;;4975190;28;20467;-69
2022/07/12 10:14:23;;;;;;;0.70;0.70;;;33.30;58.10;;;;;;4975365;28;20454;-68
2022/07/12 10:16:52;;;;;;;6.13;0.60;;;33.90;58.00;;;;;;4975257;28;20525;-68
2022/07/12 10:19:23;;;;;;;0.50;0.50;;;34.50;56.70;;;;;;4975248;28;20542;-69
2022/07/12 10:21:53;;;;;;;0.60;0.60;;;34.90;53.50;;;;;;4975125;28;20476;-68
2022/07/12 10:24:48;;;;;;;0.50;0.50;;;35.40;53.20;;;;;;4975778;28;20450;-69
2022/07/12 10:27:32;;;;;;;0.70;0.70;;;35.30;55.50;;;;;;4968424;28;20462;-69
2022/07/12 10:30:22;;;;;;;0.50;0.50;;;35.70;53.40;;;;;;4975378;28;20458;-68
2022/07/12 10:32:52;;;;;;;0.70;0.70;;;35.80;51.50;;;;;;4975115;28;20449;-67
2022/07/12 10:35:21;;;;;;;0.60;0.60;;;35.60;54.90;;;;;;4974860;28;20441;-68
2022/07/12 10:38:17;;;;;;;0.40;0.40;;;35.20;52.90;;;;;;4975381;28;20450;-68
2022/07/12 10:40:45;;;;;;;1.73;0.53;;;34.90;54.60;;;;;;4969458;28;20474;-68
2022/07/12 10:44:04;;;;;;;0.90;0.90;;;34.80;52.20;;;;;;4975244;28;20461;-68
2022/07/12 10:46:19;;;;;;;0.90;0.70;;;35.00;53.10;;;;;;4974675;28;20466;-69
2022/07/12 10:48:46;;;;;;;0.70;0.70;;;35.00;52.40;;;;;;4975161;28;20442;-68
2022/07/12 10:51:19;;;;;;;0.60;0.60;;;34.60;53.50;;;;;;4975000;28;20859;-68
2022/07/12 10:53:50;;;;;;;0.50;0.50;;;35.00;53.00;;;;;;4975390;28;20454;-69
2022/07/12 10:56:18;;;;;;;0.60;0.60;;;35.30;51.00;;;;;;4975211;28;20446;-69
2022/07/12 10:58:47;;;;;;;0.40;0.40;;;35.60;50.90;;;;;;4975444;28;20563;-68
2022/07/12 11:01:16;;;;;;;0.50;0.50;;;36.00;49.80;;;;;;4976447;28;20577;-68
2022/07/12 11:03:45;;;;;;;0.70;0.70;;;35.80;51.50;;;;;;4977867;28;20485;-64
2022/07/12 11:06:14;;;;;;;2.20;0.80;;;35.20;50.60;;;;;;4981121;28;20609;-64
2022/07/12 11:08:53;;;;;;;0.70;0.67;;;35.50;50.00;;;;;;4979652;28;20465;-65
2022/07/12 11:11:21;;;;;;;0.50;0.50;;;35.60;50.40;;;;;;4979919;28;20477;-64
2022/07/12 11:13:48;;;;;;;0.63;0.63;;;35.80;50.70;;;;;;4979794;28;20792;-64
2022/07/12 11:16:16;;;;;;;0.70;0.70;;;36.10;50.80;;;;;;4980183;28;20449;-64
2022/07/12 11:18:44;;;;;;;0.60;0.60;;;35.40;50.50;;;;;;4978972;28;20458;-64
2022/07/12 11:21:11;;;;;;;0.53;0.53;;;35.00;52.50;;;;;;4979893;28;20859;-64
2022/07/12 11:23:40;;;;;;;0.67;0.67;;;34.40;52.50;;;;;;4978779;28;20899;-64
2022/07/12 11:26:09;;;;;;;0.60;0.60;;;34.10;52.70;;;;;;4979529;28;20465;-64
2022/07/12 11:28:36;;;;;;;0.83;0.80;;;34.00;52.00;;;;;;4980437;28;20450;-63
2022/07/12 11:31:05;;;;;;;1.17;0.70;;;33.30;52.80;;;;;;4980118;28;20482;-64
2022/07/12 11:33:33;;;;;;;0.73;0.73;;;33.30;53.80;;;;;;4979782;28;20451;-64
2022/07/12 11:36:01;;;;;;;0.87;0.63;;;33.10;54.40;;;;;;4978783;28;20477;-64
2022/07/12 11:38:29;;;;;;;0.70;0.70;;;33.00;53.00;;;;;;4978419;28;20505;-63
2022/07/12 11:40:57;;;;;;;0.70;0.57;;;32.90;55.60;;;;;;4977864;28;20978;-64
2022/07/12 11:43:26;;;;;;;2.20;0.90;;;32.60;57.20;;;;;;4978112;28;20463;-64
2022/07/12 11:45:53;;;;;;;0.70;0.70;;;32.30;55.60;;;;;;4977673;28;20474;-63
2022/07/12 11:48:20;;;;;;;0.60;0.60;;;32.30;56.00;;;;;;4978020;28;20458;-64
2022/07/12 11:50:47;;;;;;;0.70;0.70;;;32.50;55.50;;;;;;4978108;28;20474;-63
2022/07/12 11:53:18;;;;;;;0.70;0.67;;;32.50;56.40;;;;;;4978016;28;20462;-65
2022/07/12 11:55:46;;;;;;;0.60;0.60;;;32.50;55.10;;;;;;4978390;28;20813;-64
2022/07/12 11:58:13;;;;;;;0.97;0.63;;;32.50;55.30;;;;;;4977884;28;20458;-64
2022/07/12 12:00:42;;;;;;;0.50;0.50;;;32.50;56.20;;;;;;4977920;28;20482;-64
2022/07/12 12:03:09;;;;;;;1.27;0.80;;;32.20;55.30;;;;;;4979049;28;20876;-65
2022/07/12 12:05:37;;;;;;;0.87;0.50;;;32.10;55.30;;;;;;4977805;28;20880;-64
2022/07/12 12:08:04;;;;;;;0.60;0.60;;;32.10;56.30;;;;;;4977726;28;20501;-64
2022/07/12 12:10:31;;;;;;;0.70;0.70;;;32.20;55.90;;;;;;4977815;28;20462;-64
2022/07/12 12:13:00;;;;;;;0.53;0.53;;;32.00;55.50;;;;;;4977764;28;20455;-64
2022/07/12 12:15:28;;;;;;;0.53;0.53;;;31.90;55.60;;;;;;4977108;28;20458;-64
2022/07/12 12:17:58;;;;;;;1.17;0.70;;;31.70;55.30;;;;;;4978604;28;20454;-64
2022/07/12 12:20:26;;;;;;;0.47;0.47;;;31.70;56.90;;;;;;4980752;28;20443;-68
2022/07/12 12:22:54;;;;;;;0.63;0.63;;;31.80;55.40;;;;;;4979366;28;20459;-64
2022/07/12 12:25:22;;;;;;;0.90;0.70;;;31.90;55.60;;;;;;4979555;28;20485;-65
2022/07/12 12:27:50;;;;;;;0.73;0.70;;;31.90;56.40;;;;;;4978431;28;20457;-64
2022/07/12 12:30:18;;;;;;;2.60;0.60;;;31.70;55.90;;;;;;4978652;28;20451;-63
2022/07/12 12:32:53;;;;;;;0.50;0.50;;;31.60;57.30;;;;;;4979622;28;20555;-64
2022/07/12 12:35:22;;;;;;;0.60;0.60;;;31.50;56.30;;;;;;4978623;28;20465;-64
2022/07/12 12:37:54;;;;;;;1.37;0.83;;;31.20;56.30;;;;;;4978710;28;20455;-64
2022/07/12 12:40:25;;;;;;;0.50;0.50;;;30.90;56.40;;;;;;4983636;28;20442;-64
2022/07/12 12:42:52;;;;;;;0.63;0.60;;;30.80;56.90;;;;;;4982206;28;20439;-64
2022/07/12 12:45:20;;;;;;;1.70;0.60;;;30.70;58.70;;;;;;4979029;28;20465;-65
2022/07/12 12:47:58;;;;;;;0.73;0.73;;;30.70;58.30;;;;;;4977726;28;20467;-63
2022/07/12 12:50:40;;;;;;;0.70;0.70;;;30.50;56.40;;;;;;4977274;28;20459;-64
2022/07/12 12:53:09;;;;;;;2.07;0.60;;;30.30;58.20;;;;;;4977345;28;20930;-64
2022/07/12 12:55:36;;;;;;;0.70;0.70;;;30.30;60.00;;;;;;4977174;28;20451;-64
2022/07/12 12:58:02;;;;;;;1.90;0.60;;;30.20;57.20;;;;;;4976660;28;20454;-64
2022/07/12 13:00:31;;;;;;;0.80;0.80;;;30.30;57.30;;;;;;4977378;28;20457;-64
2022/07/12 13:03:00;;;;;;;0.67;0.63;;;30.10;57.70;;;;;;4977182;28;20443;-64
2022/07/12 13:05:27;;;;;;;1.50;0.77;;;30.00;60.20;;;;;;4977147;28;20454;-64
2022/07/12 13:07:56;;;;;;;0.93;0.83;;;30.00;59.30;;;;;;4977326;28;20458;-64
2022/07/12 13:10:23;;;;;;;0.77;0.60;;;30.20;59.70;;;;;;4976712;28;20454;-64
2022/07/12 13:12:50;;;;;;;1.27;0.60;;;30.20;58.70;;;;;;4976058;28;20454;-64
2022/07/12 13:15:17;;;;;;;0.63;0.63;;;30.30;59.00;;;;;;4976076;28;20459;-64
2022/07/12 13:17:44;;;;;;;0.50;0.50;;;30.20;58.90;;;;;;4975608;28;20451;-64
2022/07/12 13:20:12;;;;;;;0.70;0.70;;;30.20;59.10;;;;;;4976859;28;20454;-63
2022/07/12 13:22:39;;;;;;;1.17;0.70;;;30.30;58.50;;;;;;4976386;28;20478;-63
2022/07/12 13:25:09;;;;;;;1.27;0.80;;;30.30;59.20;;;;;;4977100;28;20465;-64
2022/07/12 13:27:37;;;;;;;2.90;0.80;;;30.30;57.40;;;;;;4975047;28;21048;-64
2022/07/12 13:30:05;;;;;;;1.33;0.83;;;30.30;56.70;;;;;;4976932;28;20459;-64
2022/07/12 13:32:32;;;;;;;0.67;0.63;;;30.10;58.80;;;;;;4980491;28;20478;-64
2022/07/12 13:35:00;;;;;;;6.20;1.00;;;30.10;60.80;;;;;;4983296;28;20459;-64
2022/07/12 13:37:26;;;;;;;1.03;0.80;;;30.20;58.80;;;;;;4979717;28;21005;-64
2022/07/12 13:40:11;;;;;;;3.40;0.80;;;30.30;58.90;;;;;;4978905;28;20458;-64
2022/07/12 13:42:41;;;;;;;0.70;0.70;;;30.10;58.30;;;;;;4979072;28;20490;-64
2022/07/12 13:45:10;;;;;;;2.70;0.60;;;30.20;56.80;;;;;;4977352;28;20455;-63
2022/07/12 13:47:38;;;;;;;0.80;0.80;;;30.20;57.20;;;;;;4978147;28;20490;-63
2022/07/12 13:50:06;;;;;;;0.50;0.50;;;30.20;58.60;;;;;;4978444;28;20451;-64
2022/07/12 13:52:32;;;;;;;0.70;0.60;;;30.10;56.80;;;;;;4977581;28;20489;-64
2022/07/12 13:54:59;;;;;;;0.60;0.60;;;30.30;58.50;;;;;;4976899;28;20465;-63
2022/07/12 13:57:26;;;;;;;0.80;0.77;;;30.40;57.10;;;;;;4977876;28;20458;-63
2022/07/12 13:59:55;;;;;;;0.70;0.70;;;30.40;57.20;;;;;;4977509;28;20459;-63
2022/07/12 14:02:22;;;;;;;1.23;0.80;;;30.40;58.50;;;;;;4978787;28;20486;-64
2022/07/12 14:04:49;;;;;;;1.77;0.77;;;30.40;56.10;;;;;;4976511;28;20529;-63
2022/07/12 14:07:16;;;;;;;0.60;0.60;;;30.20;55.30;;;;;;4976186;28;20475;-63
2022/07/12 14:09:43;;;;;;;0.80;0.80;;;30.10;55.90;;;;;;4976533;28;20455;-63
2022/07/12 14:12:09;;;;;;;1.77;0.80;;;30.00;56.10;;;;;;4974927;28;20982;-63
2022/07/12 14:17:23;;;;;;;0.80;0.80;;;30.10;57.80;;;;;;4975480;28;20905;-63
2022/07/12 14:19:49;;;;;;;0.60;0.60;;;30.10;57.60;;;;;;4976197;28;20462;-64
2022/07/12 14:22:16;;;;;;;1.67;0.80;;;30.20;57.80;;;;;;4977342;28;20480;-63
2022/07/12 14:24:44;;;;;;;7.90;0.80;;;30.30;57.30;;;;;;4975963;28;20489;-64
2022/07/12 14:27:10;;;;;;;0.60;0.60;;;30.10;56.60;;;;;;4976177;28;20506;-63
2022/07/12 14:29:37;;;;;;;1.43;0.70;;;29.80;56.20;;;;;;4977273;28;20461;-63
2022/07/12 14:32:04;;;;;;;0.70;0.70;;;29.80;56.70;;;;;;4975710;28;20482;-63
2022/07/12 14:34:33;;;;;;;2.63;0.60;;;29.70;56.20;;;;;;4976361;28;20462;-63
2022/07/12 14:37:00;;;;;;;0.63;0.63;;;29.80;57.90;;;;;;4975471;28;20450;-63
2022/07/12 14:39:27;;;;;;;0.80;0.80;;;29.90;57.30;;;;;;4977188;28;20529;-63
2022/07/12 14:41:54;;;;;;;0.70;0.70;;;30.00;57.00;;;;;;4979247;28;20474;-63
2022/07/12 14:44:21;;;;;;;0.80;0.70;;;30.10;56.10;;;;;;4980064;28;20454;-63
2022/07/12 14:46:48;;;;;;;0.60;0.60;;;30.10;57.10;;;;;;4979221;28;20509;-64
2022/07/12 14:49:14;;;;;;;1.53;0.73;;;30.00;55.70;;;;;;4978853;28;20465;-63
2022/07/12 14:51:42;;;;;;;2.80;0.77;;;30.00;56.10;;;;;;4979736;28;20474;-63
2022/07/12 14:54:09;;;;;;;0.60;0.60;;;30.00;57.00;;;;;;4979107;28;20465;-63
2022/07/12 14:56:36;;;;;;;0.70;0.70;;;30.10;56.80;;;;;;4979112;28;20969;-63
2022/07/12 14:59:03;;;;;;;0.70;0.70;;;30.20;57.40;;;;;;4979930;28;20845;-63
2022/07/12 15:01:30;;;;;;;3.07;0.80;;;30.30;56.70;;;;;;4978409;28;20492;-64
2022/07/12 15:03:56;;;;;;;0.60;0.60;;;30.50;56.50;;;;;;4979126;28;20454;-63
2022/07/12 15:06:26;;;;;;;1.53;0.80;;;30.50;56.50;;;;;;4979615;28;20570;-64
2022/07/12 15:08:54;;;;;;;0.67;0.67;;;30.60;55.20;;;;;;4979273;28;20471;-62
2022/07/12 15:11:21;;;;;;;0.70;0.70;;;30.60;54.10;;;;;;4979805;28;20478;-63
2022/07/12 15:13:48;;;;;;;0.70;0.70;;;30.40;54.90;;;;;;4979387;28;20492;-63
2022/07/12 15:16:15;;;;;;;0.73;0.73;;;30.40;54.80;;;;;;4979028;28;20461;-63
2022/07/12 15:18:41;;;;;;;1.60;0.80;;;30.30;55.60;;;;;;4979368;28;20459;-63
2022/07/12 15:21:08;;;;;;;0.97;0.70;;;30.30;54.70;;;;;;4980018;28;20474;-64
2022/07/12 15:23:35;;;;;;;0.80;0.80;;;30.30;55.00;;;;;;4980237;28;20451;-63
2022/07/12 15:26:03;;;;;;;0.80;0.80;;;30.20;54.80;;;;;;4979098;28;20458;-63
2022/07/12 15:28:30;;;;;;;0.93;0.93;;;30.20;55.10;;;;;;4979180;28;20511;-63
2022/07/12 15:30:57;;;;;;;0.73;0.73;;;30.20;54.80;;;;;;4978203;28;20482;-63
2022/07/12 15:33:24;;;;;;;0.60;0.60;;;30.20;54.80;;;;;;4978658;28;20461;-64
2022/07/12 15:35:51;;;;;;;0.73;0.73;;;30.30;54.70;;;;;;4977837;28;20455;-64
2022/07/12 15:38:18;;;;;;;1.03;0.73;;;30.30;54.20;;;;;;4977287;28;20509;-64
2022/07/12 15:40:45;;;;;;;0.60;0.60;;;30.40;53.90;;;;;;4977403;28;20478;-64
2022/07/12 15:43:13;;;;;;;0.77;0.77;;;30.50;53.40;;;;;;4977256;28;20458;-63
2022/07/12 15:45:40;;;;;;;0.60;0.60;;;30.40;54.20;;;;;;4977034;28;20929;-63
2022/07/12 15:48:07;;;;;;;0.70;0.70;;;30.00;54.60;;;;;;4977090;28;20478;-63
2022/07/12 15:50:34;;;;;;;1.10;0.77;;;30.00;54.70;;;;;;4976100;28;20461;-64
2022/07/12 15:55:45;;;;;;;0.67;0.67;;;30.10;53.60;;;;;;4977380;28;20418;-64
2022/07/12 15:58:13;;;;;;;0.53;0.53;;;30.20;55.00;;;;;;4986869;28;20450;-65
2022/07/12 16:00:40;;;;;;;0.80;0.80;;;30.30;54.00;;;;;;4985277;28;20582;-64
2022/07/12 16:03:06;;;;;;;0.50;0.50;;;30.20;53.60;;;;;;4977674;28;20446;-64
2022/07/12 16:05:35;;;;;;;0.70;0.70;;;30.20;53.50;;;;;;4977147;28;20454;-64
2022/07/12 16:08:02;;;;;;;0.70;0.70;;;30.30;54.20;;;;;;4976749;28;20502;-64
2022/07/12 16:10:29;;;;;;;0.73;0.73;;;30.30;53.60;;;;;;4976919;28;20458;-64
2022/07/12 16:12:56;;;;;;;0.63;0.63;;;30.20;52.60;;;;;;4976624;28;20510;-64
2022/07/12 16:15:24;;;;;;;1.17;0.93;;;30.20;52.30;;;;;;4976618;28;20458;-64
2022/07/12 16:17:51;;;;;;;0.70;0.70;;;30.10;53.90;;;;;;4976206;28;20942;-64
2022/07/12 16:20:18;;;;;;;0.60;0.60;;;30.10;54.80;;;;;;4976394;28;20466;-65
2022/07/12 16:22:45;;;;;;;2.83;0.70;;;30.10;55.20;;;;;;4976494;28;20481;-64
2022/07/12 16:25:12;;;;;;;1.47;0.70;;;30.20;54.80;;;;;;4976553;28;20815;-64
2022/07/12 16:27:38;;;;;;;2.00;0.70;;;30.20;54.30;;;;;;4976372;28;20522;-64
2022/07/12 16:30:07;;;;;;;2.33;0.90;;;30.20;54.50;;;;;;4976416;28;20458;-64
2022/07/12 16:32:36;;;;;;;1.67;0.90;;;30.10;52.90;;;;;;4976158;28;20490;-64
2022/07/12 16:35:03;;;;;;;0.97;0.70;;;30.00;53.00;;;;;;4976320;28;20485;-64
2022/07/12 16:37:30;;;;;;;3.80;0.90;;;30.00;55.20;;;;;;4976191;28;20545;-64
2022/07/12 16:39:56;;;;;;;1.60;0.70;;;29.90;54.60;;;;;;4976219;28;20459;-64
2022/07/12 16:42:23;;;;;;;1.10;1.00;;;29.80;54.90;;;;;;4975992;28;20481;-64
2022/07/12 16:44:50;;;;;;;0.70;0.70;;;29.70;53.40;;;;;;4976092;28;20459;-64
2022/07/12 16:47:18;;;;;;;0.70;0.60;;;29.60;54.20;;;;;;4975606;28;21090;-64
2022/07/12 16:49:46;;;;;;;0.60;0.50;;;29.60;55.20;;;;;;4975301;28;20532;-64
2022/07/12 16:52:12;;;;;;;1.17;0.93;;;29.60;55.00;;;;;;4975890;28;20277;-64
2022/07/12 16:54:39;;;;;;;1.33;0.70;;;29.50;55.20;;;;;;4975895;28;20450;-64
2022/07/12 16:57:06;;;;;;;0.70;0.70;;;29.60;55.40;;;;;;4975795;28;20787;-63
2022/07/12 16:59:32;;;;;;;0.80;0.80;;;29.50;55.50;;;;;;4975814;28;20529;-63
2022/07/12 17:02:00;;;;;;;2.50;0.90;;;29.40;54.60;;;;;;4975098;28;20486;-62
2022/07/12 17:04:27;;;;;;;1.90;1.03;;;29.30;54.70;;;;;;4975343;28;20454;-62
2022/07/12 17:06:55;;;;;;;1.13;0.87;;;29.30;55.20;;;;;;4975257;28;20458;-63
2022/07/12 17:09:22;;;;;;;1.17;1.07;;;29.30;55.10;;;;;;4975259;28;20463;-62